Cebollita Spring, Valles Caldera, New Mexico Weather observations

Data are for 10 minute period ending at time listed.
 Day   Time   Solar   Ave.   Ave.  Ave.  Vector  Max.   Baro.   Total    
  of    of     Rad.   Air    Rel.  Wind   Wind   Wind  Press.  Precip.   
Year   Day            Temp.  Hum.  Speed  Dir.   Gust                    
2015   (MST)  Kw/m2    F      %     mph   deg.    mph    mb.     in.     
-------------------------------------------------------------------------
  61   13:30   0.65   43.5    50    7.0   139    13.7   99999.0    0.00 
  61   13:40   0.70   43.9    50    6.9   163    14.3   99999.0    0.00 
  61   13:50   0.50   44.7    49    6.1   161    12.5   99999.0    0.00 
  61   14:00   0.58   43.2    52    6.5   161    16.1   99999.0    0.00 
  61   14:10   0.71   46.1    48    5.4   160    14.3   99999.0    0.00 
  61   14:20   0.75   46.3    48    7.3   165    15.8   99999.0    0.00 
  61   14:30   0.59   45.6    49    6.7   171    13.1   99999.0    0.00 
  61   14:40   0.48   44.9    50    5.9   168    13.7   99999.0    0.00 
  61   14:50   0.29   44.0    53    4.9   160    17.9   99999.0    0.00 
  61   15:00   0.21   43.0    56    5.7   154    11.9   99999.0    0.00 
  61   15:10   0.27   42.4    57    6.5   161    14.9   99999.0    0.00 
  61   15:20   0.27   42.8    56    6.2   169    11.9   99999.0    0.00 
  61   15:30   0.16   42.3    57    4.4   175     9.6   99999.0    0.00 
  61   15:40   0.18   42.0    59    5.6   167    12.2   99999.0    0.00 
  61   15:50   0.18   42.3    58    5.3   170    14.3   99999.0    0.00 
  61   16:00   0.17   42.0    59    5.8   173    12.5   99999.0    0.00 
  61   16:10   0.17   42.0    60    4.4   162    13.1   99999.0    0.00 
  61   16:20   0.17   42.1    60    5.3   177    12.5   99999.0    0.00 
  61   16:30   0.12   41.7    62    5.2   176    12.5   99999.0    0.00 
  61   16:40   0.11   41.5    63    5.5   175    13.1   99999.0    0.00 
  61   16:50   0.12   41.6    64    6.0   174    16.1   99999.0    0.00 
  61   17:00   0.08   41.7    66    7.7   181    18.5   99999.0    0.00 
  61   17:10   0.09   41.8    67    7.1   177    17.9   99999.0    0.00 
  61   17:20   0.07   42.2    68    7.6   177    17.3   99999.0    0.00 
  61   17:30   0.03   41.9    68    8.6   185    19.7   99999.0    0.00 
  61   17:40   0.02   41.8    67    8.5   183    17.3   99999.0    0.00 
  61   17:50   0.01   41.6    67    8.6   178    25.0   99999.0    0.00 
  61   18:00   0.00   41.6    66    9.8   183    22.7   99999.0    0.00 
  61   18:10   0.00   41.5    66    9.3   187    19.7   99999.0    0.00 
  61   18:20   0.00   41.3    68    9.5   184    20.9   99999.0    0.00 
  61   18:30   0.00   39.9    77    7.1   185    20.3   99999.0    0.00 
  61   18:40   0.00   38.5    84    8.8   194    22.1   99999.0    0.00 
  61   18:50   0.00   38.5    81    7.7   185    19.1   99999.0    0.00 
  61   19:00   0.00   39.3    75    7.0   187    14.9   99999.0    0.00 
  61   19:10   0.00   39.6    73    7.5   190    16.7   99999.0    0.00 
  61   19:20   0.00   39.4    73    7.2   184    21.5   99999.0    0.00 
  61   19:30   0.00   39.3    74    6.6   182    23.3   99999.0    0.00 
  61   19:40   0.00   39.3    74    7.8   183    17.3   99999.0    0.00 
  61   19:50   0.00   39.4    73    7.5   187    23.3   99999.0    0.00 
  61   20:00   0.00   35.6    82   13.3   259    26.2   99999.0    0.00 
  61   20:10   0.00   31.3    94   10.8   266    19.7   99999.0    0.00 
  61   20:20   0.00   30.4    97    8.0   266    14.9   99999.0    0.00 
  61   20:30   0.00   30.0    98    7.4   263    18.5   99999.0    0.00 
  61   20:40   0.00   30.0    98    8.6   273    16.7   99999.0    0.00 
  61   20:50   0.00   29.4    98    8.1   280    16.1   99999.0    0.00 
  61   21:00   0.00   29.0    97    8.7   277    19.7   99999.0    0.00 
  61   21:10   0.00   28.7    96   10.5   275    20.9   99999.0    0.00 
  61   21:20   0.00   28.8    95   10.8   279    21.5   99999.0    0.01 
  61   21:30   0.00   28.8    95   10.0   282    20.9   99999.0    0.00 
  61   21:40   0.00   28.8    94   10.7   283    22.7   99999.0    0.00 
  61   21:50   0.00   28.8    94   11.4   277    20.9   99999.0    0.00 
  61   22:00   0.00   28.5    93   11.3   289    26.2   99999.0    0.00 
  61   22:10   0.00   28.1    93   11.5   289    23.9   99999.0    0.00 
  61   22:20   0.00   27.8    90   12.6   279    28.0   99999.0    0.00 
  61   22:30   0.00   27.7    88   13.5   280    25.6   99999.0    0.00 
  61   22:40   0.00   27.6    86   13.9   284    28.6   99999.0    0.00 
  61   22:50   0.00   27.8    81   13.0   280    25.0   99999.0    0.00 
  61   23:00   0.00   27.8    80   12.5   274    24.2   99999.0    0.00 
  61   23:10   0.00   27.6    81   10.5   270    19.7   99999.0    0.00 
  61   23:20   0.00   27.0    84    9.7   268    19.4   99999.0    0.00 
  61   23:30   0.00   26.9    83   10.5   276    20.9   99999.0    0.00 
  61   23:40   0.00   27.4    78   10.4   272    18.5   99999.0    0.00 
  61   23:50   0.00   27.5    77    9.9   272    18.5   99999.0    0.00 
  62    0:00   0.00   27.5    76    9.1   271    15.5   99999.0    0.00 
  62    0:10   0.00   27.6    75    8.2   270    16.1   99999.0    0.00 
  62    0:20   0.00   27.8    73    6.7   274    16.1   99999.0    0.00 
  62    0:30   0.00   27.9    72    8.8   268    17.3   99999.0    0.00 
  62    0:40   0.00   27.7    74    7.8   271    16.1   99999.0    0.00 
  62    0:50   0.00   27.5    75    8.9   270    17.3   99999.0    0.00 
  62    1:00   0.00   27.4    75    8.0   266    17.3   99999.0    0.00 
  62    1:10   0.00   27.2    74    8.3   269    16.7   99999.0    0.00 
  62    1:20   0.00   27.4    73    8.9   264    19.1   99999.0    0.00 
  62    1:30   0.00   27.4    72    7.5   263    14.9   99999.0    0.00 
  62    1:40   0.00   27.5    72    5.9   266    10.8   99999.0    0.00 
  62    1:50   0.00   27.3    73    5.4   258     9.6   99999.0    0.00 
  62    2:00   0.00   27.2    73    6.3   256    16.7   99999.0    0.00 
  62    2:10   0.00   27.0    75    5.1   255    10.8   99999.0    0.00 
  62    2:20   0.00   26.9    75    5.9   265    16.1   99999.0    0.00 
  62    2:30   0.00   26.9    77    6.5   276    13.1   99999.0    0.00 
  62    2:40   0.00   26.7    78    7.1   270    14.9   99999.0    0.00 
  62    2:50   0.00   26.4    79    6.8   265    13.7   99999.0    0.00 
  62    3:00   0.00   26.2    80    6.5   263    12.5   99999.0    0.00 
  62    3:10   0.00   26.0    80    6.1   259    13.7   99999.0    0.00 
  62    3:20   0.00   25.9    79    4.5   252     9.6   99999.0    0.00 
  62    3:30   0.00   25.8    78    5.5   268    11.3   99999.0    0.00 
  62    3:40   0.00   25.5    80    5.4   266    11.9   99999.0    0.00 
  62    3:50   0.00   25.4    80    5.1   279     9.6   99999.0    0.00 
  62    4:00   0.00   25.1    80    4.6   272    11.3   99999.0    0.00 
  62    4:10   0.00   25.1    80    4.4   264    10.2   99999.0    0.00 
  62    4:20   0.00   24.9    81    5.5   281    12.5   99999.0    0.00 
  62    4:30   0.00   24.9    82    3.2   296     9.0   99999.0    0.00 
  62    4:40   0.00   24.4    83    2.9   286     5.4   99999.0    0.00 
  62    4:50   0.00   24.2    83    2.6   264     6.3   99999.0    0.00 
  62    5:00   0.00   23.9    84    2.3   239     7.2   99999.0    0.00 
  62    5:10   0.00   23.7    83    1.8   287     4.8   99999.0    0.00 
  62    5:20   0.00   23.4    84    4.5   316    10.2   99999.0    0.00 
  62    5:30   0.00   23.1    85    5.2   301     9.9   99999.0    0.00 
  62    5:40   0.00   23.2    85    4.6   292    10.2   99999.0    0.00 
  62    5:50   0.00   22.8    86    1.9   292     6.0   99999.0    0.00 
  62    6:00   0.00   21.6    88    1.4   318     2.4   99999.0    0.00 
  62    6:10   0.00   20.5    91    0.9    46     2.4   99999.0    0.00 
  62    6:20   0.00   19.7    92    1.2    42     4.2   99999.0    0.00 
  62    6:30   0.00   19.2    94    2.1    23     4.8   99999.0    0.00 
  62    6:40   0.00   19.3    96    2.2    10     5.4   99999.0    0.00 
  62    6:50   0.02   20.5    96    2.0    38     6.6   99999.0    0.00 
  62    7:00   0.04   20.9    95    1.5   359     5.4   99999.0    0.00 
  62    7:10   0.06   22.3    94    3.9   359     8.4   99999.0    0.00 
  62    7:20   0.06   23.3    88    4.5   346    10.8   99999.0    0.00 
  62    7:30   0.07   23.3    87    2.2    11     6.3   99999.0    0.00 
  62    7:40   0.15   23.2    87    1.7    20     3.6   99999.0    0.00 
  62    7:50   0.07   23.0    86    1.1    70     3.6   99999.0    0.00 
  62    8:00   0.16   22.6    88    1.4    65     3.0   99999.0    0.00 
  62    8:10   0.26   23.2    86    1.2    76     3.0   99999.0    0.00 
  62    8:20   0.29   24.5    81    2.7   108     6.0   99999.0    0.00 
  62    8:30   0.29   26.2    75    2.8   135     4.8   99999.0    0.00 
  62    8:40   0.36   28.0    69    2.7   136     6.0   99999.0    0.00 
  62    8:50   0.41   28.9    68    3.8   157     6.6   99999.0    0.00 
  62    9:00   0.39   29.2    66    4.1   177     8.4   99999.0    0.00 
  62    9:10   0.61   30.2    63    3.6   198     7.2   99999.0    0.00 
  62    9:20   0.49   31.4    62    3.2   174     6.6   99999.0    0.00 
  62    9:30   0.30   30.1    65    2.6   188     5.4   99999.0    0.00 
  62    9:40   0.57   30.7    62    2.5   222     4.8   99999.0    0.00 
  62    9:50   0.74   32.4    56    4.4   198     7.8   99999.0    0.00 
  62   10:00   0.68   33.0    52    3.0   214     6.6   99999.0    0.00 
  62   10:10   0.79   34.7    50    3.2   193     7.2   99999.0    0.00 
  62   10:20   0.68   34.6    47    3.1   207     6.0   99999.0    0.00 
  62   10:30   0.80   35.0    45    4.0   206     8.4   99999.0    0.00 
  62   10:40   0.83   36.0    41    4.2   216    10.2   99999.0    0.00 
  62   10:50   0.87   35.1    43    4.6   235     9.6   99999.0    0.00 
  62   11:00   0.60   35.6    42    4.3   197    10.2   99999.0    0.00 
  62   11:10   0.72   36.2    37    4.3   205     9.0   99999.0    0.00 
  62   11:20   0.82   37.1    34    5.2   200    11.9   99999.0    0.00 
  62   11:30   0.93   37.5    31    5.0   217     9.0   99999.0    0.00 
  62   11:40   0.96   38.1    29    5.6   214    11.9   99999.0    0.00 
  62   11:50   0.96   36.6    29    6.7   233    11.3   99999.0    0.00 
  62   12:00   0.96   37.4    29    6.2   236    14.9   99999.0    0.01 
  62   12:10   0.96   37.3    31    5.2   233    10.8   99999.0    0.00 
  62   12:20   0.96   37.7    32    5.5   220    11.9   99999.0    0.00 
  62   12:30   0.95   37.6    33    7.7   246    16.7   99999.0    0.01 
  62   12:40   0.95   37.5    30    7.2   238    13.7   99999.0    0.00 
  62   12:50   0.88   37.8    32    7.2   226    17.9   99999.0    0.00 
  62   13:00   0.95   37.0    34    9.2   258    17.3   99999.0    0.01 
  62   13:10   0.95   37.7    34    8.2   225    21.5   99999.0    0.00 
  62   13:20   0.82   38.3    35    7.6   241    14.9   99999.0    0.00 

Return to Cebollita Spring, Valles Caldera graphs page.


Western Regional Climate Center,wrcc@dri.edu